Portada
METAR-TAF:

METAR-TAF

Aeroports :

Vanua Lava, Vanuatu

latitud: 13-51-06S, longitud: 167-32-13E, altitud: 2 m

Observació

L'informe es va fer fa 3 hores i 9 minuts, a les 09:00 UTC
Vent 5 kt del Sud-Est
Temperatura 26°C
Humitat 94%
Pressió 1013 hPa
Visibilitat 10 km o més
Cel ennuvolat a una alçada de 2000 ft
Cel cobert a una alçada de 4000 ft

METAR: NVSC 230900Z 14005KT 9999 BKN020 OVC040 26/25 Q1013

Hora: 23:09 (12:09 UTC)

Pronòstic

L'informe es va fer fa 2 hores i 9 minuts, a les 10:00 UTC
Pronòstic vàlid del 23 a les 12 UTC al 24 a les 12 UTC
Vent 3 kt amb direcció variable
Visibilitat: 8000 m
Cel ennuvolat a una alçada de 2000 ft
Cel cobert a una alçada de 4000 ft
Escasses núvols a una alçada de 1000 ft
Cel ennuvolat a una alçada de 1800 ft
Cel cobert a una alçada de 3800 ft
xàfecs de pluja

TAF: NVSC 231000Z 2312/2412 VRB03KT 9999 BKN020 OVC040 INTER 2312/2318 8000 SHRA FEW010 BKN018 OVC038

Observacions i pronòstics meteorològics de més de 4000 aeroports (METAR i TAF).

Les estacions disponibles són els punts grocs i vermells al mapa.

Posi el ratolí al punt desitjat per veure el nom de l'estació.

Feu clic per veure les observacions i els pronòstics meteorològics.

Per canviar el mapa: feu clic els botons verds amb una creu de color negre per apropar; al botó verd amb un guió per allunyar la imatge; o en les fletxes verdes per a mapes adjacents.


METAR-TAF: